Time;durP1;ratioP1;P1;durP2;ratioP2;P2;SDS_P1;SDS_P2;PMS_P1;PMS_P2;Temp;Humidity;BMP_temperature;BMP_pressure;BME280_temperature;BME280_humidity;BME280_pressure;Samples;Min_cycle;Max_cycle;Signal;HPM_P1;HPM_P2
2022/08/15 00:01:23;;;;;;;9.38;7.38;;;;;;;25.29;48.86;100036.22;3584937;40;20055;-63
2022/08/15 00:03:55;;;;;;;8.77;7.10;;;;;;;25.24;49.04;100026.66;3582598;40;20057;-62
2022/08/15 00:06:48;;;;;;;8.55;7.65;;;;;;;25.23;49.46;100029.66;3583344;40;20375;-62
2022/08/15 00:09:22;;;;;;;7.63;6.97;;;;;;;25.21;49.29;100032.63;3584848;40;20100;-62
2022/08/15 00:11:53;;;;;;;9.25;7.50;;;;;;;25.18;49.47;100033.03;3584129;40;20129;-62
2022/08/15 00:14:31;;;;;;;9.02;7.35;;;;;;;25.17;49.48;100036.84;3583717;40;20383;-63
2022/08/15 00:17:02;;;;;;;10.95;6.93;;;;;;;25.15;49.35;100036.22;3584314;40;20059;-62
2022/08/15 00:19:30;;;;;;;8.35;7.50;;;;;;;25.16;49.35;100035.16;3584739;39;20048;-63
2022/08/15 00:22:05;;;;;;;23.35;11.57;;;;;;;25.16;49.34;100039.81;3584891;40;20467;-62
2022/08/15 00:24:33;;;;;;;8.73;7.82;;;;;;;25.14;49.57;100037.25;3588127;40;20130;-63
2022/08/15 00:27:03;;;;;;;8.52;7.57;;;;;;;25.12;49.82;100039.38;3585461;40;20422;-63
2022/08/15 00:29:32;;;;;;;14.57;8.60;;;;;;;25.08;49.81;100043.56;3583409;40;20055;-63
2022/08/15 00:32:00;;;;;;;9.05;7.82;;;;;;;25.08;49.83;100042.72;3584246;40;20048;-62
2022/08/15 00:34:26;;;;;;;8.90;7.65;;;;;;;25.06;49.76;100045.69;3584886;40;20079;-61
2022/08/15 00:36:52;;;;;;;10.20;8.10;;;;;;;25.02;49.09;100039.75;3584712;39;20345;-61
2022/08/15 00:39:23;;;;;;;8.23;7.47;;;;;;;24.99;48.54;100029.16;3585826;40;20092;-61
2022/08/15 00:41:51;;;;;;;8.43;7.50;;;;;;;24.99;48.01;100034.66;3584976;40;20060;-61
2022/08/15 00:44:24;;;;;;;9.02;7.45;;;;;;;24.99;47.44;100031.03;3583826;40;20051;-61
2022/08/15 00:46:56;;;;;;;8.35;6.60;;;;;;;24.99;46.26;100039.31;3583573;39;20415;-61
2022/08/15 00:49:27;;;;;;;8.90;6.80;;;;;;;25.01;46.19;100038.03;3583520;40;20052;-61
2022/08/15 00:51:58;;;;;;;7.53;6.45;;;;;;;25.00;45.74;100036.34;3583256;40;21977;-61
2022/08/15 00:54:38;;;;;;;8.90;6.00;;;;;;;25.01;45.48;100032.53;3583460;40;20052;-61
2022/08/15 00:57:15;;;;;;;8.05;5.47;;;;;;;24.70;44.29;99986.34;3584711;40;20053;-62
2022/08/15 00:59:51;;;;;;;6.55;5.40;;;;;;;25.05;44.41;100049.47;3585350;40;20072;-61
2022/08/15 01:02:24;;;;;;;7.72;4.85;;;;;;;25.05;43.48;100038.47;3582987;40;20044;-61
2022/08/15 01:04:50;;;;;;;;;;;;;;;25.07;42.94;100041.88;3585839;40;20067;-61
2022/08/15 01:07:18;;;;;;;6.90;4.90;;;;;;;25.06;43.18;100045.69;3584867;40;20190;-61
2022/08/15 01:09:45;;;;;;;4.85;4.43;;;;;;;25.05;42.42;100043.13;3584961;40;20115;-61
2022/08/15 01:12:26;;;;;;;4.50;4.10;;;;;;;25.03;42.38;100035.09;3583599;40;20433;-61
2022/08/15 01:15:01;;;;;;;6.90;3.88;;;;;;;24.92;41.91;100021.94;3584202;40;20055;-61
2022/08/15 01:17:31;;;;;;;6.60;3.60;;;;;;;24.96;41.42;100037.84;3585428;40;20052;-63
2022/08/15 01:20:11;;;;;;;6.85;3.40;;;;;;;24.92;41.30;100036.53;3583621;40;20119;-61
2022/08/15 01:22:58;;;;;;;4.15;3.30;;;;;;;24.94;40.82;100041.84;3582771;40;20138;-61
2022/08/15 01:25:47;;;;;;;3.60;3.20;;;;;;;24.89;41.44;100036.94;3583372;40;20161;-61
2022/08/15 01:28:30;;;;;;;4.75;3.22;;;;;;;24.81;40.78;100019.81;3584420;40;20466;-61
2022/08/15 01:31:17;;;;;;;3.60;3.30;;;;;;;24.86;40.92;100031.03;3584346;40;20048;-62
2022/08/15 01:33:50;;;;;;;5.68;3.17;;;;;;;24.85;40.75;100034.84;3584362;40;20060;-61
2022/08/15 01:36:18;;;;;;;5.88;3.38;;;;;;;24.83;40.93;100029.53;3584804;40;20053;-61
2022/08/15 01:39:05;;;;;;;3.53;3.05;;;;;;;24.81;40.95;100031.66;3584291;40;20052;-61
2022/08/15 01:41:44;;;;;;;3.20;3.00;;;;;;;24.74;40.97;100026.16;3585776;40;20165;-61
2022/08/15 01:44:22;;;;;;;4.78;2.92;;;;;;;24.71;41.33;100043.06;3584169;40;20054;-62
2022/08/15 01:47:05;;;;;;;6.35;3.10;;;;;;;24.64;41.31;100053.16;3584924;40;20067;-61
2022/08/15 01:50:07;;;;;;;3.30;3.00;;;;;;;24.59;41.39;100050.19;3582213;40;20088;-61
2022/08/15 01:52:57;;;;;;;4.95;3.00;;;;;;;24.53;41.46;100051.00;3583279;40;20064;-62
2022/08/15 01:55:36;;;;;;;6.13;2.85;;;;;;;24.44;41.54;100039.34;3582146;40;20416;-61
2022/08/15 01:58:05;;;;;;;5.88;3.10;;;;;;;24.37;41.97;100040.34;3584985;40;20055;-61
2022/08/15 02:00:32;;;;;;;9.23;2.85;;;;;;;24.32;41.85;100041.78;3582920;40;20071;-61
2022/08/15 02:03:00;;;;;;;4.57;2.75;;;;;;;24.28;41.43;100036.91;3584352;40;20064;-62
2022/08/15 02:05:27;;;;;;;3.60;2.60;;;;;;;24.23;42.12;100034.78;3582403;40;20071;-61
2022/08/15 02:07:52;;;;;;;3.00;2.70;;;;;;;24.01;42.25;100014.81;3584004;40;20145;-61
2022/08/15 02:10:18;;;;;;;4.60;2.83;;;;;;;24.09;41.97;100033.00;3583350;40;20378;-61
2022/08/15 02:12:44;;;;;;;3.05;2.65;;;;;;;24.12;41.94;100035.34;3582555;40;20098;-61
2022/08/15 02:15:19;;;;;;;3.75;2.95;;;;;;;23.94;42.61;100024.03;3584614;40;20100;-61
2022/08/15 02:17:45;;;;;;;4.13;2.88;;;;;;;24.00;42.81;100039.69;3583869;39;20432;-61
2022/08/15 02:20:14;;;;;;;5.53;2.72;;;;;;;23.98;42.85;100036.34;3582834;40;20275;-61
2022/08/15 02:22:40;;;;;;;3.25;2.90;;;;;;;23.93;42.82;100033.34;3582936;40;20056;-61
2022/08/15 02:25:08;;;;;;;3.63;2.60;;;;;;;23.89;42.77;100038.38;3584649;40;20063;-61
2022/08/15 02:27:37;;;;;;;5.10;3.10;;;;;;;23.88;42.98;100035.81;3582214;40;20059;-61
2022/08/15 02:30:13;;;;;;;5.38;2.80;;;;;;;23.91;43.18;100038.16;3584296;40;20051;-61
2022/08/15 02:32:40;;;;;;;5.30;2.70;;;;;;;23.67;43.01;100001.88;3582136;40;20048;-61
2022/08/15 02:35:12;;;;;;;4.55;3.05;;;;;;;23.83;43.18;100040.03;3583300;40;20048;-61
2022/08/15 02:37:40;;;;;;;6.28;3.00;;;;;;;23.80;43.01;100034.94;3583056;39;20063;-61
2022/08/15 02:40:12;;;;;;;3.50;2.53;;;;;;;23.76;43.12;100041.88;3584517;40;24265;-61
2022/08/15 02:42:39;;;;;;;4.88;3.00;;;;;;;23.73;43.10;100039.53;3583786;40;20542;-61
2022/08/15 02:45:10;;;;;;;7.35;3.45;;;;;;;23.64;43.32;100040.69;3586517;40;20074;-61
2022/08/15 02:47:37;;;;;;;4.40;2.58;;;;;;;23.62;43.24;100049.13;3582440;40;20134;-61
2022/08/15 02:50:06;;;;;;;5.43;2.90;;;;;;;23.60;43.44;100045.75;3583056;39;20048;-61
2022/08/15 02:52:38;;;;;;;3.28;2.80;;;;;;;23.59;43.65;100043.19;3583646;40;20129;-61
2022/08/15 02:55:04;;;;;;;2.97;2.65;;;;;;;23.59;43.99;100044.03;3583398;40;20040;-61
2022/08/15 02:57:32;;;;;;;3.95;2.75;;;;;;;23.55;43.41;100031.75;3584096;40;20090;-61
2022/08/15 02:59:57;;;;;;;4.55;2.88;;;;;;;23.60;43.34;100036.66;3586134;40;20056;-61
2022/08/15 03:02:25;;;;;;;3.17;2.78;;;;;;;23.62;42.94;100042.78;3585321;40;20060;-61
2022/08/15 03:04:50;;;;;;;4.15;2.92;;;;;;;23.63;43.43;100039.00;3585237;40;20158;-61
2022/08/15 03:07:16;;;;;;;3.42;2.83;;;;;;;23.59;43.45;100034.94;3583683;39;20055;-62
2022/08/15 03:09:43;;;;;;;3.15;2.63;;;;;;;23.63;43.64;100047.25;3583910;40;20079;-61
2022/08/15 03:12:12;;;;;;;2.97;2.70;;;;;;;23.42;44.21;100026.16;3586044;40;20363;-63
2022/08/15 03:14:38;;;;;;;5.60;3.00;;;;;;;23.50;44.18;100049.84;3581895;40;20074;-63
2022/08/15 03:17:06;;;;;;;6.93;3.30;;;;;;;23.45;44.21;100052.34;3582975;39;20056;-63
2022/08/15 03:19:31;;;;;;;4.90;3.17;;;;;;;22.64;44.72;99937.47;3584796;40;20291;-63
2022/08/15 03:21:57;;;;;;;4.43;3.50;;;;;;;23.34;44.93;100056.47;3583961;40;20058;-63
2022/08/15 03:24:23;;;;;;;4.47;3.30;;;;;;;23.30;45.20;100039.56;3583383;40;20052;-63
2022/08/15 03:26:49;;;;;;;6.35;3.33;;;;;;;23.29;44.87;100040.63;3582992;39;20075;-63
2022/08/15 03:29:19;;;;;;;8.52;3.60;;;;;;;23.25;44.97;100046.66;3584482;39;20058;-63
2022/08/15 03:31:49;;;;;;;7.57;3.10;;;;;;;23.21;45.11;100046.22;3581533;40;20067;-63
2022/08/15 03:34:18;;;;;;;3.42;3.03;;;;;;;23.14;45.68;100046.16;3582068;40;20415;-63
2022/08/15 03:36:46;;;;;;;6.00;3.80;;;;;;;23.02;45.48;100030.44;3583396;40;20066;-63
2022/08/15 03:39:13;;;;;;;5.75;3.85;;;;;;;23.03;45.83;100043.97;3584502;40;20280;-63
2022/08/15 03:41:41;;;;;;;6.15;3.45;;;;;;;23.02;45.61;100041.38;3583836;40;20062;-63
2022/08/15 03:44:07;;;;;;;5.75;3.53;;;;;;;22.97;45.87;100043.88;3584235;40;20088;-63
2022/08/15 03:46:32;;;;;;;10.63;3.40;;;;;;;22.96;45.83;100047.66;3584365;40;20067;-63
2022/08/15 03:48:58;;;;;;;11.35;3.58;;;;;;;22.78;46.85;100029.72;3588811;39;20063;-63
2022/08/15 03:51:27;;;;;;;7.75;3.78;;;;;;;22.89;46.48;100059.34;3586987;39;20059;-63
2022/08/15 03:53:59;;;;;;;5.18;3.95;;;;;;;22.80;46.72;100055.03;3585880;39;20075;-63
2022/08/15 03:56:30;;;;;;;4.63;3.67;;;;;;;22.74;47.26;100061.31;3585034;39;20059;-63
2022/08/15 03:58:58;;;;;;;5.50;3.40;;;;;;;22.71;47.35;100061.69;3585904;40;20091;-63
2022/08/15 04:01:32;;;;;;;7.95;4.25;;;;;;;22.68;47.57;100056.59;3585679;40;20055;-63
2022/08/15 04:03:58;;;;;;;7.07;3.85;;;;;;;22.65;47.58;100057.00;3586744;39;20059;-63
2022/08/15 04:06:29;;;;;;;4.00;3.22;;;;;;;22.67;48.00;100050.25;3585214;40;20766;-63
2022/08/15 04:08:57;;;;;;;4.35;3.60;;;;;;;22.63;48.46;100043.47;3586060;40;20060;-63
2022/08/15 04:11:30;;;;;;;5.47;3.30;;;;;;;22.65;48.45;100046.88;3586752;39;20105;-63
2022/08/15 04:13:55;;;;;;;7.10;4.07;;;;;;;22.60;48.79;100045.75;3587390;39;20047;-63
2022/08/15 04:16:21;;;;;;;7.90;3.63;;;;;;;22.61;49.25;100050.16;3585671;39;20068;-63
2022/08/15 04:18:47;;;;;;;5.40;3.58;;;;;;;22.62;49.32;100046.41;3585218;40;20996;-63
2022/08/15 04:21:14;;;;;;;4.53;3.38;;;;;;;22.65;49.07;100051.50;3585215;40;20052;-63
2022/08/15 04:23:45;;;;;;;6.30;3.67;;;;;;;22.65;49.54;100057.00;3584775;40;20059;-62
2022/08/15 04:26:12;;;;;;;5.28;3.97;;;;;;;22.68;50.04;100056.59;3585321;40;20048;-63
2022/08/15 04:28:38;;;;;;;8.07;3.80;;;;;;;22.67;50.22;100052.16;3582827;40;20422;-63
2022/08/15 04:31:13;;;;;;;4.15;3.75;;;;;;;22.69;50.85;100058.28;3587311;40;20111;-63
2022/08/15 04:33:39;;;;;;;7.60;3.75;;;;;;;22.67;50.64;100053.00;3584187;39;20064;-63
2022/08/15 04:36:11;;;;;;;4.57;3.70;;;;;;;22.69;50.64;100059.13;3586358;40;20052;-63
2022/08/15 04:38:39;;;;;;;8.98;3.83;;;;;;;22.65;51.34;100062.47;3585376;40;20088;-63
2022/08/15 04:41:07;;;;;;;12.98;7.90;;;;;;;22.66;51.65;100055.94;3585222;40;20441;-63
2022/08/15 04:43:36;;;;;;;6.88;4.80;;;;;;;22.66;51.72;100058.69;3584077;40;20064;-62
2022/08/15 04:46:04;;;;;;;5.72;3.88;;;;;;;22.66;52.05;100066.91;3584753;40;20059;-63
2022/08/15 04:48:31;;;;;;;8.68;4.00;;;;;;;22.68;52.24;100062.94;3584447;40;20068;-63
2022/08/15 04:50:59;;;;;;;5.57;3.90;;;;;;;22.67;52.48;100060.38;3584903;39;20357;-63
2022/08/15 04:53:30;;;;;;;5.03;3.70;;;;;;;22.71;52.68;100057.06;3583942;40;20126;-63
2022/08/15 04:55:59;;;;;;;5.30;3.70;;;;;;;22.74;52.54;100058.56;3584730;40;20056;-63
2022/08/15 04:58:24;;;;;;;6.30;4.18;;;;;;;22.70;52.95;100055.34;3585190;39;20071;-63
2022/08/15 05:01:05;;;;;;;6.30;4.15;;;;;;;22.79;52.74;100057.97;3584807;40;20048;-63
2022/08/15 05:03:31;;;;;;;8.27;4.18;;;;;;;22.82;52.87;100076.78;3583629;40;20074;-63
2022/08/15 05:06:03;;;;;;;5.10;3.58;;;;;;;22.85;53.02;100076.41;3583084;40;20068;-63
2022/08/15 05:08:31;;;;;;;6.80;3.90;;;;;;;22.89;52.49;100064.84;3581810;40;20068;-63
2022/08/15 05:11:11;;;;;;;4.97;3.78;;;;;;;22.86;53.32;100065.22;3585847;40;20060;-63
2022/08/15 05:13:40;;;;;;;9.95;4.00;;;;;;;22.90;53.21;100061.06;3585815;40;20092;-64
2022/08/15 05:16:07;;;;;;;7.20;3.95;;;;;;;22.90;53.24;100069.28;3583857;40;20060;-62
2022/08/15 05:18:41;;;;;;;8.82;3.92;;;;;;;22.89;53.37;100073.06;3586777;40;20060;-63
2022/08/15 05:21:10;;;;;;;7.57;3.78;;;;;;;22.93;53.46;100074.44;3586208;40;20060;-63
2022/08/15 05:23:39;;;;;;;5.93;3.60;;;;;;;22.98;53.12;100078.47;3583493;40;20056;-61
2022/08/15 05:26:07;;;;;;;8.63;3.83;;;;;;;22.99;53.48;100080.16;3585426;40;20320;-61
2022/08/15 05:28:33;;;;;;;5.60;4.18;;;;;;;22.94;53.53;100092.56;3582780;40;20396;-61
2022/08/15 05:31:05;;;;;;;6.90;3.92;;;;;;;22.99;54.16;100091.97;3583522;40;20135;-61
2022/08/15 05:33:31;;;;;;;7.60;4.10;;;;;;;22.98;54.73;100097.66;3584375;40;20052;-61
2022/08/15 05:36:02;;;;;;;7.35;3.80;;;;;;;22.97;54.79;100099.56;3585030;40;20060;-61
2022/08/15 05:38:51;;;;;;;5.25;3.97;;;;;;;22.97;55.38;100098.72;3582199;40;20086;-61
2022/08/15 05:41:32;;;;;;;8.10;3.92;;;;;;;22.96;55.07;100091.50;3584751;39;20302;-61
2022/08/15 05:44:25;;;;;;;6.70;4.28;;;;;;;22.96;55.70;100102.47;3585294;40;20361;-61
2022/08/15 05:47:28;;;;;;;6.65;3.92;;;;;;;22.98;55.86;100092.19;3584173;39;20048;-61
2022/08/15 05:50:22;;;;;;;8.15;3.88;;;;;;;23.06;55.21;100090.16;3590041;40;20059;-61
2022/08/15 05:53:21;;;;;;;6.57;3.63;;;;;;;23.06;54.92;100094.81;3586904;40;20048;-61
2022/08/15 05:56:10;;;;;;;6.30;3.63;;;;;;;23.10;55.07;100094.22;3586882;40;20064;-61
2022/08/15 05:58:51;;;;;;;7.32;3.88;;;;;;;23.14;54.95;100089.19;3585431;40;20056;-61
2022/08/15 06:01:38;;;;;;;6.20;3.38;;;;;;;23.14;54.55;100095.50;3585225;40;20048;-62
2022/08/15 06:04:20;;;;;;;5.03;3.70;;;;;;;23.12;54.61;100102.22;3582118;40;20306;-62
2022/08/15 06:06:50;;;;;;;6.40;3.63;;;;;;;23.17;54.73;100106.09;3583970;39;20052;-62
2022/08/15 06:09:34;;;;;;;7.80;4.55;;;;;;;23.20;54.60;100104.84;3584601;40;20600;-62
2022/08/15 06:12:12;;;;;;;6.18;3.60;;;;;;;23.21;54.49;100105.69;3583399;40;20125;-62
2022/08/15 06:14:46;;;;;;;6.20;3.75;;;;;;;23.20;54.72;100102.13;3588534;40;20314;-62
2022/08/15 06:17:23;;;;;;;7.32;3.83;;;;;;;23.30;54.76;100116.34;3583833;39;20048;-63
2022/08/15 06:19:52;;;;;;;5.03;3.85;;;;;;;23.31;54.96;100118.06;3588947;40;20145;-62
2022/08/15 06:23:05;;;;;;;8.75;3.80;;;;;;;23.36;54.74;100118.31;3585716;40;20083;-60
2022/08/15 06:26:24;;;;;;;9.43;4.05;;;;;;;23.39;54.96;100114.34;3584627;40;20056;-60
2022/08/15 06:29:08;;;;;;;5.07;3.90;;;;;;;23.45;54.76;100116.28;3585125;40;20055;-61
2022/08/15 06:31:44;;;;;;;6.50;4.07;;;;;;;23.52;54.92;100110.88;3583868;40;20744;-61
2022/08/15 06:34:37;;;;;;;8.85;3.60;;;;;;;23.55;55.08;100114.06;3585539;40;20063;-60
2022/08/15 06:37:30;;;;;;;8.57;3.88;;;;;;;23.59;55.30;100114.53;3586573;40;20060;-61
2022/08/15 06:40:16;;;;;;;7.13;4.28;;;;;;;23.60;55.16;100114.34;3585326;40;20397;-61
2022/08/15 06:42:45;;;;;;;7.30;4.15;;;;;;;23.60;55.08;100110.75;3587269;40;20140;-61
2022/08/15 06:45:39;;;;;;;6.57;3.90;;;;;;;23.60;55.35;100110.75;3584094;40;20649;-61
2022/08/15 06:48:24;;;;;;;8.13;4.82;;;;;;;23.57;55.41;100105.66;3586968;40;20048;-60
2022/08/15 06:50:59;;;;;;;10.05;4.47;;;;;;;23.58;55.58;100119.16;3589939;40;20052;-60
2022/08/15 06:54:11;;;;;;;7.60;4.35;;;;;;;23.62;55.64;100114.97;3586804;39;20043;-61
2022/08/15 06:57:24;;;;;;;6.43;4.30;;;;;;;23.69;55.42;100120.56;3548979;40;20058;-60
2022/08/15 07:00:14;;;;;;;6.60;4.30;;;;;;;23.72;56.13;100131.13;3498573;41;20063;-61
2022/08/15 07:02:58;;;;;;;5.40;3.90;;;;;;;23.78;55.53;100113.88;3581768;40;20109;-61
2022/08/15 07:05:36;;;;;;;4.35;3.95;;;;;;;23.82;55.74;100114.34;3583519;40;20464;-61
2022/08/15 07:08:39;;;;;;;7.80;4.45;;;;;;;24.02;55.75;100115.34;3585325;40;20064;-62
2022/08/15 07:11:27;;;;;;;9.73;4.53;;;;;;;24.30;54.81;100104.34;3583858;40;20064;-63
2022/08/15 07:14:43;;;;;;;6.57;4.40;;;;;;;24.49;54.17;100104.69;3583639;40;20092;-63
2022/08/15 07:17:20;;;;;;;5.40;3.90;;;;;;;24.67;53.90;100110.47;3583650;40;20083;-63
2022/08/15 07:19:46;;;;;;;6.57;4.35;;;;;;;24.75;53.14;100110.28;3583622;40;20060;-63
2022/08/15 07:22:11;;;;;;;7.97;4.07;;;;;;;24.76;53.72;100109.22;3585609;40;20055;-63
2022/08/15 07:24:49;;;;;;;4.60;4.13;;;;;;;24.79;53.24;100110.72;3586623;40;20078;-63
2022/08/15 07:27:24;;;;;;;6.90;4.43;;;;;;;24.80;53.40;100112.41;3586375;40;20050;-63
2022/08/15 07:30:00;;;;;;;7.03;4.45;;;;;;;24.79;53.56;100108.81;3585121;40;20064;-63
2022/08/15 07:32:46;;;;;;;10.27;5.10;;;;;;;24.78;52.73;100106.28;3585838;40;20095;-63
2022/08/15 07:35:12;;;;;;;6.97;4.80;;;;;;;24.82;53.29;100101.22;3585278;40;20137;-64
2022/08/15 07:38:05;;;;;;;6.53;4.32;;;;;;;24.88;53.27;100105.91;3585785;40;20052;-63
2022/08/15 07:40:40;;;;;;;8.75;5.30;;;;;;;24.86;53.00;100105.25;3585298;40;20056;-63
2022/08/15 07:43:31;;;;;;;7.75;5.50;;;;;;;24.86;52.94;100110.75;3586136;40;20060;-63
2022/08/15 07:46:34;;;;;;;6.40;5.30;;;;;;;24.91;53.24;100119.25;3585463;40;20076;-63
2022/08/15 07:49:16;;;;;;;5.78;4.85;;;;;;;24.88;52.78;100119.66;3585169;40;20068;-63
2022/08/15 07:51:57;;;;;;;8.87;4.97;;;;;;;24.92;52.48;100120.94;3586030;40;20118;-63
2022/08/15 07:54:43;;;;;;;6.40;5.28;;;;;;;24.95;52.15;100118.63;3584665;40;20377;-63
2022/08/15 07:57:21;;;;;;;7.93;4.97;;;;;;;25.04;52.76;100119.28;3586090;40;20352;-63
2022/08/15 08:00:10;;;;;;;9.45;5.40;;;;;;;25.07;52.58;100123.53;3584982;40;20052;-63
2022/08/15 08:02:54;;;;;;;9.85;5.60;;;;;;;25.04;52.21;100123.94;3584643;40;20052;-63
2022/08/15 08:05:27;;;;;;;7.70;4.75;;;;;;;24.99;52.76;100117.16;3584315;40;20048;-64
2022/08/15 08:07:55;;;;;;;7.93;5.05;;;;;;;25.15;52.41;100121.47;3584584;40;20381;-63
2022/08/15 08:10:27;;;;;;;7.40;4.65;;;;;;;25.26;52.78;100122.78;3584222;40;20105;-63
2022/08/15 08:13:35;;;;;;;7.72;5.22;;;;;;;25.37;51.87;100124.91;3585429;40;20130;-63
2022/08/15 08:16:27;;;;;;;7.85;4.50;;;;;;;25.35;51.64;100126.19;3585514;40;20134;-63
2022/08/15 08:19:17;;;;;;;7.22;5.03;;;;;;;25.33;52.13;100133.78;3585671;40;20044;-63
2022/08/15 08:22:07;;;;;;;8.15;5.00;;;;;;;25.22;52.04;100114.09;3584866;40;20163;-63
2022/08/15 08:25:09;;;;;;;9.43;4.93;;;;;;;25.36;51.82;100133.38;3586639;40;20062;-63
2022/08/15 08:28:17;;;;;;;6.15;4.80;;;;;;;25.37;51.43;100140.56;3584286;40;20405;-63
2022/08/15 08:31:14;;;;;;;8.30;5.60;;;;;;;25.39;52.56;100147.56;3584975;40;20072;-63
2022/08/15 08:34:13;;;;;;;8.57;5.20;;;;;;;25.34;51.98;100135.47;3583694;40;20125;-63
2022/08/15 08:37:11;;;;;;;5.72;4.22;;;;;;;25.30;52.65;100140.53;3584893;40;20073;-63
2022/08/15 08:39:39;;;;;;;8.93;4.68;;;;;;;25.27;52.82;100135.47;3584571;40;20052;-62
2022/08/15 08:42:33;;;;;;;6.43;4.55;;;;;;;25.24;53.22;100141.38;3583788;40;20052;-63
2022/08/15 08:45:10;;;;;;;9.82;4.70;;;;;;;25.18;53.36;100133.94;3585999;40;20063;-63
2022/08/15 08:48:04;;;;;;;7.90;4.70;;;;;;;25.14;53.14;100136.28;3583581;40;20056;-63
2022/08/15 08:51:04;;;;;;;9.73;4.65;;;;;;;25.10;53.00;100143.22;3584848;39;20056;-64
2022/08/15 08:53:56;;;;;;;12.38;4.80;;;;;;;25.10;53.61;100134.97;3583746;40;20133;-63
2022/08/15 08:56:30;;;;;;;9.15;4.97;;;;;;;25.07;53.70;100140.88;3582838;40;20090;-64
2022/08/15 08:59:16;;;;;;;7.13;5.13;;;;;;;24.77;53.67;100096.38;3582757;40;20048;-64
2022/08/15 09:01:47;;;;;;;7.43;5.18;;;;;;;24.97;54.61;100141.25;3583549;40;20100;-64
2022/08/15 09:04:23;;;;;;;8.90;5.28;;;;;;;24.88;54.51;100142.50;3582200;40;20051;-63
2022/08/15 09:06:52;;;;;;;5.82;5.15;;;;;;;24.86;53.99;100146.50;3583028;40;20056;-64
2022/08/15 09:09:36;;;;;;;6.97;5.50;;;;;;;24.80;54.62;100159.16;3585405;40;20072;-64
2022/08/15 09:15:05;;;;;;;7.68;5.03;;;;;;;24.79;54.42;100166.56;3582459;40;20281;-64
2022/08/15 09:17:38;;;;;;;6.07;5.40;;;;;;;24.83;54.61;100166.16;3583393;40;20110;-63
2022/08/15 09:20:25;;;;;;;6.00;4.63;;;;;;;24.95;54.12;100159.03;3583560;39;20055;-64
2022/08/15 09:22:51;;;;;;;8.30;5.22;;;;;;;24.99;53.75;100152.91;3586664;39;20056;-65
2022/08/15 09:25:18;;;;;;;8.77;4.97;;;;;;;25.17;53.98;100160.63;3585166;40;20060;-64
2022/08/15 09:28:07;;;;;;;7.32;5.45;;;;;;;25.28;53.49;100163.81;3581828;40;20044;-64
2022/08/15 09:30:34;;;;;;;8.23;5.40;;;;;;;25.08;53.59;100125.22;3574705;40;20063;-64
2022/08/15 09:33:57;;;;;;;8.48;5.55;;;;;;;25.31;53.94;100157.91;3583751;40;20056;-65
2022/08/15 09:36:45;;;;;;;7.45;4.80;;;;;;;25.34;55.15;100162.97;3580459;39;20100;-65
2022/08/15 09:39:24;;;;;;;11.02;5.07;;;;;;;25.43;53.88;100156.25;3585900;40;20052;-65
2022/08/15 09:42:19;;;;;;;8.40;5.22;;;;;;;25.47;53.78;100158.38;3582427;40;20048;-64
2022/08/15 09:45:34;;;;;;;9.00;5.32;;;;;;;25.59;53.00;100155.84;3587254;40;20402;-64
2022/08/15 09:48:11;;;;;;;9.77;4.93;;;;;;;25.80;53.23;100157.56;3587006;40;20278;-64
2022/08/15 09:50:41;;;;;;;7.38;4.65;;;;;;;25.93;52.89;100162.25;3582582;39;20714;-64
2022/08/15 09:53:17;;;;;;;8.07;5.10;;;;;;;25.91;52.85;100161.63;3586443;40;20083;-64
2022/08/15 09:55:48;;;;;;;5.80;4.70;;;;;;;25.93;52.88;100157.59;3586133;40;20121;-64
2022/08/15 09:58:35;;;;;;;7.05;5.22;;;;;;;26.07;52.89;100166.72;3583731;40;20397;-65
2022/08/15 10:01:18;;;;;;;6.70;5.10;;;;;;;26.16;51.97;100162.69;3588733;40;20044;-65
2022/08/15 10:03:43;;;;;;;6.20;4.95;;;;;;;26.15;52.60;100166.50;3585879;40;20064;-64
2022/08/15 10:06:23;;;;;;;8.25;5.20;;;;;;;26.06;51.70;100162.25;3585089;40;20658;-64
2022/08/15 10:08:55;;;;;;;9.00;5.32;;;;;;;26.10;53.28;100162.69;3588375;40;20474;-64
2022/08/15 10:11:51;;;;;;;7.40;5.53;;;;;;;26.15;52.36;100160.97;3588374;40;20083;-64
2022/08/15 10:14:19;;;;;;;8.13;6.32;;;;;;;26.23;51.39;100159.94;3587114;40;20048;-64
2022/08/15 10:16:59;;;;;;;16.30;5.78;;;;;;;26.27;51.08;100160.34;3588218;40;20056;-64
2022/08/15 10:19:35;;;;;;;13.90;5.45;;;;;;;26.34;51.98;100163.94;3583085;39;20060;-64
2022/08/15 10:22:24;;;;;;;6.70;5.53;;;;;;;26.33;51.54;100165.84;3583664;39;20091;-64
2022/08/15 10:25:42;;;;;;;7.13;5.57;;;;;;;26.33;51.35;100162.25;3584839;40;20140;-64
2022/08/15 10:28:11;;;;;;;7.57;5.63;;;;;;;26.24;51.85;100161.63;3578905;40;20189;-64
2022/08/15 10:31:03;;;;;;;7.80;5.45;;;;;;;26.19;52.08;100155.06;3584960;39;20048;-64
2022/08/15 10:33:32;;;;;;;7.90;5.22;;;;;;;26.16;51.77;100165.44;3582144;40;20117;-64
2022/08/15 10:36:13;;;;;;;9.95;5.30;;;;;;;26.12;51.03;100161.41;3586657;39;20058;-64
2022/08/15 10:38:56;;;;;;;12.40;5.43;;;;;;;25.97;51.31;100140.66;3584691;40;20154;-64
2022/08/15 10:41:49;;;;;;;13.43;5.63;;;;;;;26.09;51.95;100170.09;3581749;40;20052;-66
2022/08/15 10:44:47;;;;;;;9.40;5.03;;;;;;;26.07;51.56;100175.00;3583172;40;20052;-64
2022/08/15 10:47:54;;;;;;;10.80;5.60;;;;;;;26.05;52.68;100176.25;3587023;40;20073;-65
2022/08/15 10:50:58;;;;;;;6.32;5.28;;;;;;;26.05;52.95;100176.25;3586589;40;20068;-64
2022/08/15 10:54:00;;;;;;;8.00;4.95;;;;;;;25.96;52.34;100175.63;3586981;40;20052;-64
2022/08/15 10:56:33;;;;;;;6.72;5.30;;;;;;;25.91;53.01;100176.25;3573449;40;20402;-64
2022/08/15 10:59:13;;;;;;;5.72;4.80;;;;;;;25.24;53.23;100081.69;3585847;40;20066;-64
2022/08/15 11:01:40;;;;;;;6.85;4.72;;;;;;;25.83;52.98;100175.63;3584360;40;20044;-63
2022/08/15 11:04:26;;;;;;;8.05;5.13;;;;;;;25.87;52.88;100174.13;3583672;40;20054;-62
2022/08/15 11:06:53;;;;;;;7.65;5.07;;;;;;;25.83;52.93;100173.69;3581999;40;20424;-64
2022/08/15 11:09:23;;;;;;;5.80;4.93;;;;;;;25.87;53.51;100174.13;3585651;40;21622;-64
2022/08/15 11:11:56;;;;;;;8.15;5.20;;;;;;;25.88;53.06;100176.69;3587130;40;20051;-64
2022/08/15 11:14:34;;;;;;;8.65;5.68;;;;;;;25.82;52.55;100172.03;3583779;40;20111;-64
2022/08/15 11:17:01;;;;;;;10.25;4.97;;;;;;;25.80;53.45;100167.75;3583116;40;20064;-63
2022/08/15 11:19:36;;;;;;;9.25;5.13;;;;;;;25.83;52.50;100172.84;3584901;40;20145;-63
2022/08/15 11:22:16;;;;;;;9.85;5.05;;;;;;;25.84;53.45;100174.53;3585565;40;20078;-64
2022/08/15 11:24:56;;;;;;;7.78;4.43;;;;;;;25.92;52.01;100172.44;3584777;40;20096;-64
2022/08/15 11:27:25;;;;;;;7.43;4.65;;;;;;;25.93;52.35;100179.63;3585609;39;20166;-64
2022/08/15 11:29:55;;;;;;;8.77;4.93;;;;;;;25.99;52.09;100172.44;3584458;40;20138;-65
2022/08/15 11:32:28;;;;;;;10.10;4.57;;;;;;;26.04;52.46;100175.41;3582018;39;20067;-64
2022/08/15 11:34:59;;;;;;;6.68;4.90;;;;;;;26.05;52.82;100168.84;3585804;40;20063;-64
2022/08/15 11:37:40;;;;;;;6.32;4.80;;;;;;;26.15;51.60;100169.25;3586785;40;20485;-65
2022/08/15 11:40:32;;;;;;;7.78;4.47;;;;;;;26.31;51.42;100169.88;3583591;40;20063;-64
2022/08/15 11:43:03;;;;;;;8.02;5.07;;;;;;;26.40;51.37;100168.59;3584365;40;20115;-64
2022/08/15 11:45:41;;;;;;;8.57;5.18;;;;;;;26.49;51.43;100178.38;3582954;40;20082;-63
2022/08/15 11:48:21;;;;;;;8.15;5.38;;;;;;;26.56;50.39;100173.69;3587738;39;20062;-64
2022/08/15 11:51:21;;;;;;;6.63;4.82;;;;;;;26.70;51.36;100181.91;3584033;40;20048;-63
2022/08/15 11:54:11;;;;;;;7.40;4.60;;;;;;;26.75;50.86;100177.44;3584444;39;20063;-64
2022/08/15 11:57:03;;;;;;;7.75;5.25;;;;;;;26.66;50.52;100153.09;3583991;40;20055;-63
2022/08/15 11:59:37;;;;;;;6.65;4.82;;;;;;;26.90;49.65;100179.97;3582919;40;20132;-63
2022/08/15 12:02:05;;;;;;;8.13;5.07;;;;;;;26.97;49.27;100190.97;3582831;40;20415;-63
2022/08/15 12:04:38;;;;;;;7.40;4.90;;;;;;;27.01;49.43;100182.00;3584067;40;20171;-63
2022/08/15 12:07:13;;;;;;;7.50;4.63;;;;;;;27.00;49.87;100180.34;3584112;40;20037;-63
2022/08/15 12:09:48;;;;;;;7.80;4.50;;;;;;;27.02;50.24;100186.50;3587185;40;20063;-63
2022/08/15 12:12:37;;;;;;;9.00;5.00;;;;;;;26.98;50.00;100190.72;3584444;40;20361;-63
2022/08/15 12:15:39;;;;;;;8.13;5.28;;;;;;;26.83;50.20;100190.13;3585375;39;20052;-63